sensor_id;sensor_type;location;lat;lon;timestamp;P1;durP1;ratioP1;P2;durP2;ratioP2
60588;SDS011;46421;48.610;9.334;2023-08-12T00:01:14;7.00;;;2.85;;
60588;SDS011;46421;48.610;9.334;2023-08-12T00:03:39;5.90;;;2.77;;
60588;SDS011;46421;48.610;9.334;2023-08-12T00:06:04;5.27;;;2.60;;
60588;SDS011;46421;48.610;9.334;2023-08-12T00:08:30;5.53;;;2.80;;
60588;SDS011;46421;48.610;9.334;2023-08-12T00:10:55;6.28;;;2.90;;
60588;SDS011;46421;48.610;9.334;2023-08-12T00:13:21;6.13;;;2.87;;
60588;SDS011;46421;48.610;9.334;2023-08-12T00:15:46;6.73;;;2.80;;
60588;SDS011;46421;48.610;9.334;2023-08-12T00:18:11;8.30;;;3.23;;
60588;SDS011;46421;48.610;9.334;2023-08-12T00:20:36;7.00;;;3.00;;
60588;SDS011;46421;48.610;9.334;2023-08-12T00:23:03;6.90;;;2.90;;
60588;SDS011;46421;48.610;9.334;2023-08-12T00:25:28;8.60;;;3.88;;
60588;SDS011;46421;48.610;9.334;2023-08-12T00:27:53;7.40;;;3.70;;
60588;SDS011;46421;48.610;9.334;2023-08-12T00:30:19;6.27;;;2.73;;
60588;SDS011;46421;48.610;9.334;2023-08-12T00:32:44;6.93;;;2.80;;
60588;SDS011;46421;48.610;9.334;2023-08-12T00:35:09;7.37;;;3.20;;
60588;SDS011;46421;48.610;9.334;2023-08-12T00:37:34;6.13;;;2.90;;
60588;SDS011;46421;48.610;9.334;2023-08-12T00:40:00;6.73;;;3.17;;
60588;SDS011;46421;48.610;9.334;2023-08-12T00:42:25;6.23;;;2.97;;
60588;SDS011;46421;48.610;9.334;2023-08-12T00:44:50;8.53;;;3.13;;
60588;SDS011;46421;48.610;9.334;2023-08-12T00:47:16;5.80;;;2.70;;
60588;SDS011;46421;48.610;9.334;2023-08-12T00:49:41;8.48;;;3.15;;
60588;SDS011;46421;48.610;9.334;2023-08-12T00:52:09;6.10;;;2.95;;
60588;SDS011;46421;48.610;9.334;2023-08-12T00:54:35;7.40;;;3.10;;
60588;SDS011;46421;48.610;9.334;2023-08-12T00:57:00;5.70;;;2.77;;
60588;SDS011;46421;48.610;9.334;2023-08-12T00:59:25;6.53;;;2.80;;
60588;SDS011;46421;48.610;9.334;2023-08-12T01:01:51;5.40;;;2.67;;
60588;SDS011;46421;48.610;9.334;2023-08-12T01:04:16;6.17;;;2.50;;
60588;SDS011;46421;48.610;9.334;2023-08-12T01:06:41;5.70;;;2.73;;
60588;SDS011;46421;48.610;9.334;2023-08-12T01:09:06;6.00;;;2.87;;
60588;SDS011;46421;48.610;9.334;2023-08-12T01:11:42;4.25;;;2.13;;
60588;SDS011;46421;48.610;9.334;2023-08-12T01:16:36;7.85;;;3.08;;
60588;SDS011;46421;48.610;9.334;2023-08-12T01:19:04;8.07;;;2.30;;
60588;SDS011;46421;48.610;9.334;2023-08-12T01:21:30;7.00;;;2.53;;
60588;SDS011;46421;48.610;9.334;2023-08-12T01:23:56;6.47;;;3.00;;
60588;SDS011;46421;48.610;9.334;2023-08-12T01:26:21;7.47;;;2.70;;
60588;SDS011;46421;48.610;9.334;2023-08-12T01:28:46;5.63;;;2.90;;
60588;SDS011;46421;48.610;9.334;2023-08-12T01:31:15;5.43;;;2.35;;
60588;SDS011;46421;48.610;9.334;2023-08-12T01:33:44;7.10;;;2.67;;
60588;SDS011;46421;48.610;9.334;2023-08-12T01:36:15;4.80;;;2.33;;
60588;SDS011;46421;48.610;9.334;2023-08-12T01:38:41;8.27;;;2.92;;
60588;SDS011;46421;48.610;9.334;2023-08-12T01:41:07;7.18;;;2.50;;
60588;SDS011;46421;48.610;9.334;2023-08-12T01:43:33;5.13;;;2.70;;
60588;SDS011;46421;48.610;9.334;2023-08-12T01:45:59;7.35;;;2.78;;
60588;SDS011;46421;48.610;9.334;2023-08-12T01:48:24;6.47;;;2.77;;
60588;SDS011;46421;48.610;9.334;2023-08-12T01:50:49;5.47;;;2.57;;
60588;SDS011;46421;48.610;9.334;2023-08-12T01:53:14;5.27;;;2.60;;
60588;SDS011;46421;48.610;9.334;2023-08-12T01:55:42;6.03;;;2.60;;
60588;SDS011;46421;48.610;9.334;2023-08-12T01:58:08;10.25;;;3.25;;
60588;SDS011;46421;48.610;9.334;2023-08-12T02:00:33;5.50;;;2.80;;
60588;SDS011;46421;48.610;9.334;2023-08-12T02:02:59;6.20;;;2.97;;
60588;SDS011;46421;48.610;9.334;2023-08-12T02:05:24;5.93;;;2.83;;
60588;SDS011;46421;48.610;9.334;2023-08-12T02:07:49;5.93;;;2.60;;
60588;SDS011;46421;48.610;9.334;2023-08-12T02:10:14;5.17;;;2.50;;
60588;SDS011;46421;48.610;9.334;2023-08-12T02:12:40;7.90;;;3.37;;
60588;SDS011;46421;48.610;9.334;2023-08-12T02:15:05;5.97;;;2.50;;
60588;SDS011;46421;48.610;9.334;2023-08-12T02:17:30;7.32;;;2.72;;
60588;SDS011;46421;48.610;9.334;2023-08-12T02:19:55;5.80;;;2.87;;
60588;SDS011;46421;48.610;9.334;2023-08-12T02:22:21;5.43;;;2.57;;
60588;SDS011;46421;48.610;9.334;2023-08-12T02:24:46;6.15;;;2.72;;
60588;SDS011;46421;48.610;9.334;2023-08-12T02:27:12;6.07;;;2.90;;
60588;SDS011;46421;48.610;9.334;2023-08-12T02:29:37;5.73;;;2.87;;
60588;SDS011;46421;48.610;9.334;2023-08-12T02:32:02;6.63;;;2.97;;
60588;SDS011;46421;48.610;9.334;2023-08-12T02:34:27;7.27;;;2.60;;
60588;SDS011;46421;48.610;9.334;2023-08-12T02:36:52;7.13;;;2.83;;
60588;SDS011;46421;48.610;9.334;2023-08-12T02:39:18;5.77;;;2.70;;
60588;SDS011;46421;48.610;9.334;2023-08-12T02:41:43;5.87;;;2.80;;
60588;SDS011;46421;48.610;9.334;2023-08-12T02:44:08;6.45;;;3.05;;
60588;SDS011;46421;48.610;9.334;2023-08-12T02:46:33;5.23;;;2.60;;
60588;SDS011;46421;48.610;9.334;2023-08-12T02:48:59;5.17;;;2.80;;
60588;SDS011;46421;48.610;9.334;2023-08-12T02:51:24;5.50;;;2.80;;
60588;SDS011;46421;48.610;9.334;2023-08-12T02:53:49;5.60;;;2.70;;
60588;SDS011;46421;48.610;9.334;2023-08-12T02:56:14;6.53;;;3.00;;
60588;SDS011;46421;48.610;9.334;2023-08-12T02:58:39;7.30;;;2.77;;
60588;SDS011;46421;48.610;9.334;2023-08-12T03:01:04;4.87;;;2.63;;
60588;SDS011;46421;48.610;9.334;2023-08-12T03:03:30;4.90;;;2.70;;
60588;SDS011;46421;48.610;9.334;2023-08-12T03:05:55;5.37;;;2.90;;
60588;SDS011;46421;48.610;9.334;2023-08-12T03:08:20;5.05;;;2.45;;
60588;SDS011;46421;48.610;9.334;2023-08-12T03:10:45;5.20;;;2.60;;
60588;SDS011;46421;48.610;9.334;2023-08-12T03:13:11;5.90;;;2.50;;
60588;SDS011;46421;48.610;9.334;2023-08-12T03:15:39;5.47;;;2.93;;
60588;SDS011;46421;48.610;9.334;2023-08-12T03:18:05;5.18;;;2.70;;
60588;SDS011;46421;48.610;9.334;2023-08-12T03:20:30;5.43;;;2.70;;
60588;SDS011;46421;48.610;9.334;2023-08-12T03:22:55;6.97;;;3.10;;
60588;SDS011;46421;48.610;9.334;2023-08-12T03:25:21;5.73;;;2.97;;
60588;SDS011;46421;48.610;9.334;2023-08-12T03:27:47;5.40;;;2.63;;
60588;SDS011;46421;48.610;9.334;2023-08-12T03:30:12;4.87;;;2.57;;
60588;SDS011;46421;48.610;9.334;2023-08-12T03:32:37;5.10;;;2.50;;
60588;SDS011;46421;48.610;9.334;2023-08-12T03:35:02;5.40;;;2.80;;
60588;SDS011;46421;48.610;9.334;2023-08-12T03:37:29;6.18;;;2.70;;
60588;SDS011;46421;48.610;9.334;2023-08-12T03:39:54;6.90;;;2.90;;
60588;SDS011;46421;48.610;9.334;2023-08-12T03:42:19;8.83;;;3.37;;
60588;SDS011;46421;48.610;9.334;2023-08-12T03:44:44;5.40;;;2.60;;
60588;SDS011;46421;48.610;9.334;2023-08-12T03:47:10;4.93;;;2.60;;
60588;SDS011;46421;48.610;9.334;2023-08-12T03:49:35;6.75;;;2.50;;
60588;SDS011;46421;48.610;9.334;2023-08-12T03:52:00;6.43;;;3.30;;
60588;SDS011;46421;48.610;9.334;2023-08-12T03:54:26;5.70;;;3.10;;
60588;SDS011;46421;48.610;9.334;2023-08-12T03:56:51;5.00;;;2.70;;
60588;SDS011;46421;48.610;9.334;2023-08-12T03:59:16;6.70;;;3.00;;
60588;SDS011;46421;48.610;9.334;2023-08-12T04:01:41;5.87;;;2.83;;
60588;SDS011;46421;48.610;9.334;2023-08-12T04:04:06;7.90;;;2.93;;
60588;SDS011;46421;48.610;9.334;2023-08-12T04:06:32;5.07;;;2.97;;
60588;SDS011;46421;48.610;9.334;2023-08-12T04:08:57;8.63;;;2.97;;
60588;SDS011;46421;48.610;9.334;2023-08-12T04:11:22;5.77;;;3.07;;
60588;SDS011;46421;48.610;9.334;2023-08-12T04:13:47;5.30;;;2.17;;
60588;SDS011;46421;48.610;9.334;2023-08-12T04:16:12;5.43;;;3.00;;
60588;SDS011;46421;48.610;9.334;2023-08-12T04:18:38;8.30;;;3.00;;
60588;SDS011;46421;48.610;9.334;2023-08-12T04:21:03;6.50;;;3.27;;
60588;SDS011;46421;48.610;9.334;2023-08-12T04:23:28;5.70;;;2.93;;
60588;SDS011;46421;48.610;9.334;2023-08-12T04:25:54;4.97;;;2.70;;
60588;SDS011;46421;48.610;9.334;2023-08-12T04:28:19;5.95;;;2.63;;
60588;SDS011;46421;48.610;9.334;2023-08-12T04:30:45;5.07;;;2.50;;
60588;SDS011;46421;48.610;9.334;2023-08-12T04:33:10;6.88;;;3.30;;
60588;SDS011;46421;48.610;9.334;2023-08-12T04:35:35;6.57;;;3.00;;
60588;SDS011;46421;48.610;9.334;2023-08-12T04:38:00;6.30;;;3.00;;
60588;SDS011;46421;48.610;9.334;2023-08-12T04:40:26;6.93;;;3.00;;
60588;SDS011;46421;48.610;9.334;2023-08-12T04:42:51;6.03;;;2.77;;
60588;SDS011;46421;48.610;9.334;2023-08-12T04:45:16;6.80;;;3.20;;
60588;SDS011;46421;48.610;9.334;2023-08-12T04:47:41;5.50;;;2.90;;
60588;SDS011;46421;48.610;9.334;2023-08-12T04:50:07;4.93;;;2.45;;
60588;SDS011;46421;48.610;9.334;2023-08-12T04:52:32;5.35;;;2.67;;
60588;SDS011;46421;48.610;9.334;2023-08-12T04:54:57;5.33;;;2.50;;
60588;SDS011;46421;48.610;9.334;2023-08-12T04:57:23;6.03;;;3.23;;
60588;SDS011;46421;48.610;9.334;2023-08-12T04:59:48;5.70;;;3.03;;
60588;SDS011;46421;48.610;9.334;2023-08-12T05:02:13;6.57;;;3.00;;
60588;SDS011;46421;48.610;9.334;2023-08-12T05:04:38;5.63;;;3.33;;
60588;SDS011;46421;48.610;9.334;2023-08-12T05:07:03;6.03;;;3.20;;
60588;SDS011;46421;48.610;9.334;2023-08-12T05:09:29;6.37;;;3.00;;
60588;SDS011;46421;48.610;9.334;2023-08-12T05:11:54;7.13;;;2.73;;
60588;SDS011;46421;48.610;9.334;2023-08-12T05:14:19;6.03;;;3.20;;
60588;SDS011;46421;48.610;9.334;2023-08-12T05:16:44;5.40;;;2.70;;
60588;SDS011;46421;48.610;9.334;2023-08-12T05:19:09;6.43;;;2.60;;
60588;SDS011;46421;48.610;9.334;2023-08-12T05:21:35;6.37;;;2.60;;
60588;SDS011;46421;48.610;9.334;2023-08-12T05:24:00;7.73;;;3.37;;
60588;SDS011;46421;48.610;9.334;2023-08-12T05:26:25;4.93;;;2.75;;
60588;SDS011;46421;48.610;9.334;2023-08-12T05:28:50;6.67;;;2.90;;
60588;SDS011;46421;48.610;9.334;2023-08-12T05:31:16;6.93;;;3.40;;
60588;SDS011;46421;48.610;9.334;2023-08-12T05:33:41;7.83;;;3.27;;
60588;SDS011;46421;48.610;9.334;2023-08-12T05:36:06;6.83;;;3.60;;
60588;SDS011;46421;48.610;9.334;2023-08-12T05:38:31;6.07;;;2.93;;
60588;SDS011;46421;48.610;9.334;2023-08-12T05:40:57;6.40;;;3.70;;
60588;SDS011;46421;48.610;9.334;2023-08-12T05:43:22;5.80;;;3.30;;
60588;SDS011;46421;48.610;9.334;2023-08-12T05:45:47;6.33;;;3.20;;
60588;SDS011;46421;48.610;9.334;2023-08-12T05:48:13;6.55;;;3.50;;
60588;SDS011;46421;48.610;9.334;2023-08-12T05:50:38;8.03;;;3.93;;
60588;SDS011;46421;48.610;9.334;2023-08-12T05:53:03;6.33;;;3.23;;
60588;SDS011;46421;48.610;9.334;2023-08-12T05:55:28;6.53;;;3.57;;
60588;SDS011;46421;48.610;9.334;2023-08-12T05:57:54;6.87;;;3.33;;
60588;SDS011;46421;48.610;9.334;2023-08-12T06:00:19;7.37;;;3.40;;
60588;SDS011;46421;48.610;9.334;2023-08-12T06:02:44;6.87;;;3.30;;
60588;SDS011;46421;48.610;9.334;2023-08-12T06:05:09;7.47;;;3.53;;
60588;SDS011;46421;48.610;9.334;2023-08-12T06:07:34;7.00;;;3.53;;
60588;SDS011;46421;48.610;9.334;2023-08-12T06:10:00;5.65;;;3.10;;
60588;SDS011;46421;48.610;9.334;2023-08-12T06:12:25;7.17;;;3.47;;
60588;SDS011;46421;48.610;9.334;2023-08-12T06:14:50;6.47;;;3.47;;
60588;SDS011;46421;48.610;9.334;2023-08-12T06:17:16;6.63;;;3.37;;
60588;SDS011;46421;48.610;9.334;2023-08-12T06:19:41;6.30;;;3.30;;
60588;SDS011;46421;48.610;9.334;2023-08-12T06:22:06;5.83;;;3.50;;
60588;SDS011;46421;48.610;9.334;2023-08-12T06:24:31;5.93;;;3.40;;
60588;SDS011;46421;48.610;9.334;2023-08-12T06:26:56;9.57;;;3.47;;
60588;SDS011;46421;48.610;9.334;2023-08-12T06:29:22;6.85;;;3.67;;
60588;SDS011;46421;48.610;9.334;2023-08-12T06:31:47;5.57;;;3.00;;
60588;SDS011;46421;48.610;9.334;2023-08-12T06:34:12;6.37;;;3.20;;
60588;SDS011;46421;48.610;9.334;2023-08-12T06:36:37;8.83;;;3.83;;
60588;SDS011;46421;48.610;9.334;2023-08-12T06:39:03;6.37;;;3.43;;
60588;SDS011;46421;48.610;9.334;2023-08-12T06:41:28;6.35;;;3.90;;
60588;SDS011;46421;48.610;9.334;2023-08-12T06:43:53;5.85;;;3.45;;
60588;SDS011;46421;48.610;9.334;2023-08-12T06:46:19;6.10;;;3.13;;
60588;SDS011;46421;48.610;9.334;2023-08-12T06:48:44;6.07;;;3.33;;
60588;SDS011;46421;48.610;9.334;2023-08-12T06:51:09;5.43;;;2.80;;
60588;SDS011;46421;48.610;9.334;2023-08-12T06:53:38;8.07;;;3.30;;
60588;SDS011;46421;48.610;9.334;2023-08-12T06:56:03;6.38;;;2.97;;
60588;SDS011;46421;48.610;9.334;2023-08-12T06:58:28;11.97;;;4.10;;
60588;SDS011;46421;48.610;9.334;2023-08-12T07:00:54;6.03;;;3.50;;
60588;SDS011;46421;48.610;9.334;2023-08-12T07:03:19;7.23;;;4.80;;
60588;SDS011;46421;48.610;9.334;2023-08-12T07:05:44;7.97;;;3.85;;
60588;SDS011;46421;48.610;9.334;2023-08-12T07:08:09;6.97;;;3.50;;
60588;SDS011;46421;48.610;9.334;2023-08-12T07:10:37;5.37;;;3.00;;
60588;SDS011;46421;48.610;9.334;2023-08-12T07:13:02;5.75;;;2.80;;
60588;SDS011;46421;48.610;9.334;2023-08-12T07:15:28;5.85;;;3.20;;
60588;SDS011;46421;48.610;9.334;2023-08-12T07:17:53;6.70;;;3.10;;
60588;SDS011;46421;48.610;9.334;2023-08-12T07:20:18;6.00;;;3.30;;
60588;SDS011;46421;48.610;9.334;2023-08-12T07:22:43;6.60;;;3.20;;
60588;SDS011;46421;48.610;9.334;2023-08-12T07:25:09;6.40;;;3.37;;
60588;SDS011;46421;48.610;9.334;2023-08-12T07:27:34;8.07;;;3.70;;
60588;SDS011;46421;48.610;9.334;2023-08-12T07:29:59;5.43;;;2.90;;
60588;SDS011;46421;48.610;9.334;2023-08-12T07:32:24;7.77;;;3.73;;
60588;SDS011;46421;48.610;9.334;2023-08-12T07:34:49;5.80;;;3.00;;
60588;SDS011;46421;48.610;9.334;2023-08-12T07:37:15;5.97;;;3.20;;
60588;SDS011;46421;48.610;9.334;2023-08-12T07:39:40;5.70;;;3.33;;
60588;SDS011;46421;48.610;9.334;2023-08-12T07:42:05;6.00;;;3.10;;
60588;SDS011;46421;48.610;9.334;2023-08-12T07:44:30;5.67;;;3.30;;
60588;SDS011;46421;48.610;9.334;2023-08-12T07:46:55;6.37;;;3.30;;
60588;SDS011;46421;48.610;9.334;2023-08-12T07:49:21;5.00;;;3.30;;
60588;SDS011;46421;48.610;9.334;2023-08-12T07:51:46;6.43;;;3.35;;
60588;SDS011;46421;48.610;9.334;2023-08-12T07:54:12;5.63;;;3.50;;
60588;SDS011;46421;48.610;9.334;2023-08-12T07:56:37;5.32;;;3.05;;
60588;SDS011;46421;48.610;9.334;2023-08-12T08:01:28;7.25;;;3.60;;
60588;SDS011;46421;48.610;9.334;2023-08-12T08:06:18;5.85;;;3.78;;
60588;SDS011;46421;48.610;9.334;2023-08-12T08:08:43;6.63;;;3.60;;
60588;SDS011;46421;48.610;9.334;2023-08-12T08:13:34;6.13;;;3.60;;
60588;SDS011;46421;48.610;9.334;2023-08-12T08:15:59;5.53;;;4.03;;
60588;SDS011;46421;48.610;9.334;2023-08-12T08:20:49;5.85;;;3.35;;
60588;SDS011;46421;48.610;9.334;2023-08-12T08:25:39;5.63;;;3.83;;
60588;SDS011;46421;48.610;9.334;2023-08-12T08:30:30;6.22;;;3.35;;
60588;SDS011;46421;48.610;9.334;2023-08-12T08:35:20;5.30;;;3.33;;
60588;SDS011;46421;48.610;9.334;2023-08-12T08:37:45;5.87;;;3.40;;
60588;SDS011;46421;48.610;9.334;2023-08-12T08:40:11;6.60;;;3.47;;
60588;SDS011;46421;48.610;9.334;2023-08-12T08:45:02;5.90;;;3.23;;
60588;SDS011;46421;48.610;9.334;2023-08-12T08:47:28;5.10;;;3.33;;
60588;SDS011;46421;48.610;9.334;2023-08-12T08:52:19;4.55;;;3.13;;
60588;SDS011;46421;48.610;9.334;2023-08-12T08:57:09;5.78;;;3.28;;
60588;SDS011;46421;48.610;9.334;2023-08-12T09:02:01;5.35;;;3.20;;
60588;SDS011;46421;48.610;9.334;2023-08-12T09:04:26;5.80;;;3.13;;
60588;SDS011;46421;48.610;9.334;2023-08-12T09:06:52;5.53;;;3.40;;
60588;SDS011;46421;48.610;9.334;2023-08-12T09:11:43;6.40;;;3.25;;
60588;SDS011;46421;48.610;9.334;2023-08-12T09:14:10;5.90;;;3.45;;
60588;SDS011;46421;48.610;9.334;2023-08-12T09:19:00;5.32;;;3.72;;
60588;SDS011;46421;48.610;9.334;2023-08-12T09:21:26;5.40;;;3.00;;
60588;SDS011;46421;48.610;9.334;2023-08-12T09:23:51;6.32;;;3.25;;
60588;SDS011;46421;48.610;9.334;2023-08-12T09:26:17;6.77;;;3.40;;
60588;SDS011;46421;48.610;9.334;2023-08-12T09:28:43;5.20;;;3.17;;
60588;SDS011;46421;48.610;9.334;2023-08-12T09:31:08;5.90;;;3.57;;
60588;SDS011;46421;48.610;9.334;2023-08-12T09:35:58;9.23;;;3.40;;
60588;SDS011;46421;48.610;9.334;2023-08-12T09:38:23;5.60;;;3.43;;
60588;SDS011;46421;48.610;9.334;2023-08-12T09:40:51;5.28;;;3.28;;
60588;SDS011;46421;48.610;9.334;2023-08-12T09:43:16;6.45;;;3.53;;
60588;SDS011;46421;48.610;9.334;2023-08-12T09:45:43;4.88;;;2.95;;
60588;SDS011;46421;48.610;9.334;2023-08-12T09:48:09;6.88;;;3.28;;
60588;SDS011;46421;48.610;9.334;2023-08-12T09:50:34;7.17;;;3.10;;
60588;SDS011;46421;48.610;9.334;2023-08-12T09:53:01;5.43;;;3.40;;
60588;SDS011;46421;48.610;9.334;2023-08-12T09:55:28;4.22;;;3.17;;
60588;SDS011;46421;48.610;9.334;2023-08-12T09:57:54;5.15;;;3.95;;
60588;SDS011;46421;48.610;9.334;2023-08-12T10:00:20;5.25;;;3.17;;
60588;SDS011;46421;48.610;9.334;2023-08-12T10:02:46;4.95;;;4.07;;
60588;SDS011;46421;48.610;9.334;2023-08-12T10:05:19;4.90;;;2.95;;
60588;SDS011;46421;48.610;9.334;2023-08-12T10:07:46;5.28;;;3.70;;
60588;SDS011;46421;48.610;9.334;2023-08-12T10:10:12;4.65;;;3.10;;
60588;SDS011;46421;48.610;9.334;2023-08-12T10:12:38;5.70;;;2.60;;
60588;SDS011;46421;48.610;9.334;2023-08-12T10:15:04;5.05;;;2.42;;
60588;SDS011;46421;48.610;9.334;2023-08-12T10:17:30;5.63;;;2.70;;
60588;SDS011;46421;48.610;9.334;2023-08-12T10:19:55;6.03;;;2.70;;
60588;SDS011;46421;48.610;9.334;2023-08-12T10:24:46;4.88;;;2.55;;
60588;SDS011;46421;48.610;9.334;2023-08-12T10:27:12;5.15;;;2.40;;
60588;SDS011;46421;48.610;9.334;2023-08-12T10:32:04;4.93;;;2.50;;
60588;SDS011;46421;48.610;9.334;2023-08-12T10:34:29;5.57;;;2.53;;
60588;SDS011;46421;48.610;9.334;2023-08-12T10:36:59;4.47;;;2.47;;
60588;SDS011;46421;48.610;9.334;2023-08-12T10:39:25;4.18;;;2.35;;
60588;SDS011;46421;48.610;9.334;2023-08-12T10:41:51;4.72;;;2.30;;
60588;SDS011;46421;48.610;9.334;2023-08-12T10:44:19;5.00;;;2.80;;
60588;SDS011;46421;48.610;9.334;2023-08-12T10:46:52;6.75;;;2.53;;
60588;SDS011;46421;48.610;9.334;2023-08-12T10:49:20;4.70;;;2.65;;
60588;SDS011;46421;48.610;9.334;2023-08-12T10:54:21;3.87;;;2.03;;
60588;SDS011;46421;48.610;9.334;2023-08-12T11:04:52;4.53;;;2.22;;
60588;SDS011;46421;48.610;9.334;2023-08-12T11:07:17;5.57;;;2.75;;
60588;SDS011;46421;48.610;9.334;2023-08-12T11:09:43;5.55;;;2.78;;
60588;SDS011;46421;48.610;9.334;2023-08-12T11:14:46;7.53;;;2.90;;
60588;SDS011;46421;48.610;9.334;2023-08-12T11:17:13;3.95;;;2.00;;
60588;SDS011;46421;48.610;9.334;2023-08-12T11:19:38;5.00;;;2.22;;
60588;SDS011;46421;48.610;9.334;2023-08-12T11:24:29;4.80;;;2.60;;
60588;SDS011;46421;48.610;9.334;2023-08-12T11:26:56;5.80;;;2.60;;
60588;SDS011;46421;48.610;9.334;2023-08-12T11:29:22;5.35;;;3.67;;
60588;SDS011;46421;48.610;9.334;2023-08-12T11:31:47;5.50;;;2.60;;
60588;SDS011;46421;48.610;9.334;2023-08-12T11:34:12;6.50;;;3.60;;
60588;SDS011;46421;48.610;9.334;2023-08-12T11:36:38;5.13;;;3.10;;
60588;SDS011;46421;48.610;9.334;2023-08-12T11:39:03;5.18;;;3.17;;
60588;SDS011;46421;48.610;9.334;2023-08-12T11:41:28;5.18;;;2.75;;
60588;SDS011;46421;48.610;9.334;2023-08-12T11:43:54;5.57;;;3.57;;
60588;SDS011;46421;48.610;9.334;2023-08-12T11:46:19;6.70;;;2.83;;
60588;SDS011;46421;48.610;9.334;2023-08-12T11:48:44;4.33;;;2.47;;
60588;SDS011;46421;48.610;9.334;2023-08-12T11:51:09;4.60;;;2.20;;
60588;SDS011;46421;48.610;9.334;2023-08-12T11:53:35;5.03;;;2.75;;
60588;SDS011;46421;48.610;9.334;2023-08-12T11:56:00;5.70;;;2.40;;
60588;SDS011;46421;48.610;9.334;2023-08-12T11:58:25;4.07;;;2.17;;
60588;SDS011;46421;48.610;9.334;2023-08-12T12:00:50;4.03;;;2.00;;
60588;SDS011;46421;48.610;9.334;2023-08-12T12:03:16;4.13;;;1.98;;
60588;SDS011;46421;48.610;9.334;2023-08-12T12:05:42;4.60;;;2.33;;
60588;SDS011;46421;48.610;9.334;2023-08-12T12:08:11;4.10;;;2.25;;
60588;SDS011;46421;48.610;9.334;2023-08-12T12:10:36;5.87;;;2.43;;
60588;SDS011;46421;48.610;9.334;2023-08-12T12:13:02;4.37;;;1.70;;
60588;SDS011;46421;48.610;9.334;2023-08-12T12:15:28;4.95;;;2.40;;
60588;SDS011;46421;48.610;9.334;2023-08-12T12:17:53;3.33;;;1.67;;
60588;SDS011;46421;48.610;9.334;2023-08-12T12:20:19;3.90;;;1.83;;
60588;SDS011;46421;48.610;9.334;2023-08-12T12:22:45;3.58;;;1.73;;
60588;SDS011;46421;48.610;9.334;2023-08-12T12:25:12;4.05;;;1.63;;
60588;SDS011;46421;48.610;9.334;2023-08-12T12:27:38;4.55;;;1.90;;
60588;SDS011;46421;48.610;9.334;2023-08-12T12:30:04;5.45;;;2.58;;
60588;SDS011;46421;48.610;9.334;2023-08-12T12:32:29;5.10;;;1.77;;
60588;SDS011;46421;48.610;9.334;2023-08-12T12:34:55;4.17;;;1.93;;
60588;SDS011;46421;48.610;9.334;2023-08-12T12:37:20;5.53;;;2.07;;
60588;SDS011;46421;48.610;9.334;2023-08-12T12:39:45;4.05;;;1.60;;
60588;SDS011;46421;48.610;9.334;2023-08-12T12:42:10;5.70;;;2.20;;
60588;SDS011;46421;48.610;9.334;2023-08-12T12:44:36;3.65;;;1.75;;
60588;SDS011;46421;48.610;9.334;2023-08-12T12:47:20;4.30;;;1.75;;
60588;SDS011;46421;48.610;9.334;2023-08-12T12:49:46;5.85;;;1.85;;
60588;SDS011;46421;48.610;9.334;2023-08-12T12:52:11;3.75;;;1.88;;
60588;SDS011;46421;48.610;9.334;2023-08-12T12:54:36;4.10;;;1.70;;
60588;SDS011;46421;48.610;9.334;2023-08-12T12:57:02;4.27;;;1.93;;
60588;SDS011;46421;48.610;9.334;2023-08-12T12:59:28;12.50;;;3.10;;
60588;SDS011;46421;48.610;9.334;2023-08-12T13:01:53;7.00;;;2.50;;
60588;SDS011;46421;48.610;9.334;2023-08-12T13:04:19;7.20;;;3.10;;
60588;SDS011;46421;48.610;9.334;2023-08-12T13:06:44;6.68;;;2.85;;
60588;SDS011;46421;48.610;9.334;2023-08-12T13:09:09;7.43;;;3.07;;
60588;SDS011;46421;48.610;9.334;2023-08-12T13:11:35;7.63;;;2.43;;
60588;SDS011;46421;48.610;9.334;2023-08-12T13:14:00;8.07;;;2.80;;
60588;SDS011;46421;48.610;9.334;2023-08-12T13:16:26;5.68;;;2.50;;
60588;SDS011;46421;48.610;9.334;2023-08-12T13:18:51;6.30;;;2.43;;
60588;SDS011;46421;48.610;9.334;2023-08-12T13:21:16;4.40;;;2.07;;
60588;SDS011;46421;48.610;9.334;2023-08-12T13:23:41;5.10;;;2.07;;
60588;SDS011;46421;48.610;9.334;2023-08-12T13:26:07;8.20;;;2.43;;
60588;SDS011;46421;48.610;9.334;2023-08-12T13:28:32;5.17;;;1.87;;
60588;SDS011;46421;48.610;9.334;2023-08-12T13:30:57;5.77;;;1.97;;
60588;SDS011;46421;48.610;9.334;2023-08-12T13:33:22;6.60;;;2.30;;
60588;SDS011;46421;48.610;9.334;2023-08-12T13:35:47;5.93;;;2.50;;
60588;SDS011;46421;48.610;9.334;2023-08-12T13:38:13;6.23;;;2.47;;
60588;SDS011;46421;48.610;9.334;2023-08-12T13:40:38;6.73;;;2.50;;
60588;SDS011;46421;48.610;9.334;2023-08-12T13:43:03;6.35;;;2.50;;
60588;SDS011;46421;48.610;9.334;2023-08-12T13:45:29;5.47;;;2.40;;
60588;SDS011;46421;48.610;9.334;2023-08-12T13:47:54;8.53;;;2.40;;
60588;SDS011;46421;48.610;9.334;2023-08-12T13:50:19;6.03;;;2.20;;
60588;SDS011;46421;48.610;9.334;2023-08-12T13:52:45;6.75;;;2.22;;
60588;SDS011;46421;48.610;9.334;2023-08-12T13:55:11;4.85;;;2.35;;
60588;SDS011;46421;48.610;9.334;2023-08-12T13:57:36;5.45;;;2.08;;
60588;SDS011;46421;48.610;9.334;2023-08-12T14:00:02;7.60;;;2.40;;
60588;SDS011;46421;48.610;9.334;2023-08-12T14:02:29;7.30;;;2.33;;
60588;SDS011;46421;48.610;9.334;2023-08-12T14:04:54;5.63;;;2.13;;
60588;SDS011;46421;48.610;9.334;2023-08-12T14:07:19;4.87;;;1.97;;
60588;SDS011;46421;48.610;9.334;2023-08-12T14:09:45;5.80;;;2.22;;
60588;SDS011;46421;48.610;9.334;2023-08-12T14:12:10;5.85;;;2.03;;
60588;SDS011;46421;48.610;9.334;2023-08-12T14:14:35;8.33;;;2.33;;
60588;SDS011;46421;48.610;9.334;2023-08-12T14:17:01;4.80;;;2.17;;
60588;SDS011;46421;48.610;9.334;2023-08-12T14:19:26;5.47;;;2.40;;
60588;SDS011;46421;48.610;9.334;2023-08-12T14:21:51;6.00;;;2.30;;
60588;SDS011;46421;48.610;9.334;2023-08-12T14:24:16;5.23;;;1.87;;
60588;SDS011;46421;48.610;9.334;2023-08-12T14:26:41;6.33;;;2.17;;
60588;SDS011;46421;48.610;9.334;2023-08-12T14:29:07;4.83;;;2.27;;
60588;SDS011;46421;48.610;9.334;2023-08-12T14:31:32;6.83;;;2.33;;
60588;SDS011;46421;48.610;9.334;2023-08-12T14:33:58;4.43;;;2.08;;
60588;SDS011;46421;48.610;9.334;2023-08-12T14:36:23;5.57;;;2.20;;
60588;SDS011;46421;48.610;9.334;2023-08-12T14:41:14;6.90;;;2.33;;
60588;SDS011;46421;48.610;9.334;2023-08-12T14:43:39;5.50;;;2.10;;
60588;SDS011;46421;48.610;9.334;2023-08-12T14:46:04;5.40;;;2.03;;
60588;SDS011;46421;48.610;9.334;2023-08-12T14:48:30;4.50;;;2.07;;
60588;SDS011;46421;48.610;9.334;2023-08-12T14:50:56;4.32;;;2.05;;
60588;SDS011;46421;48.610;9.334;2023-08-12T14:53:21;5.13;;;2.60;;
60588;SDS011;46421;48.610;9.334;2023-08-12T14:55:46;4.67;;;2.07;;
60588;SDS011;46421;48.610;9.334;2023-08-12T14:58:11;4.83;;;2.00;;
60588;SDS011;46421;48.610;9.334;2023-08-12T15:00:37;4.10;;;1.75;;
60588;SDS011;46421;48.610;9.334;2023-08-12T15:03:02;5.77;;;2.13;;
60588;SDS011;46421;48.610;9.334;2023-08-12T15:05:28;5.22;;;2.10;;
60588;SDS011;46421;48.610;9.334;2023-08-12T15:07:53;5.47;;;1.90;;
60588;SDS011;46421;48.610;9.334;2023-08-12T15:10:18;3.83;;;1.63;;
60588;SDS011;46421;48.610;9.334;2023-08-12T15:12:43;3.00;;;1.50;;
60588;SDS011;46421;48.610;9.334;2023-08-12T15:15:09;5.00;;;1.97;;
60588;SDS011;46421;48.610;9.334;2023-08-12T15:17:34;4.00;;;2.10;;
60588;SDS011;46421;48.610;9.334;2023-08-12T15:19:59;4.17;;;1.87;;
60588;SDS011;46421;48.610;9.334;2023-08-12T15:22:24;4.33;;;1.90;;
60588;SDS011;46421;48.610;9.334;2023-08-12T15:24:50;4.83;;;1.97;;
60588;SDS011;46421;48.610;9.334;2023-08-12T15:27:15;4.07;;;1.90;;
60588;SDS011;46421;48.610;9.334;2023-08-12T15:29:40;4.67;;;1.90;;
60588;SDS011;46421;48.610;9.334;2023-08-12T15:32:05;3.17;;;1.60;;
60588;SDS011;46421;48.610;9.334;2023-08-12T15:34:31;3.83;;;1.70;;
60588;SDS011;46421;48.610;9.334;2023-08-12T15:36:56;4.83;;;1.90;;